Time;durP1;ratioP1;P1;durP2;ratioP2;P2;SDS_P1;SDS_P2;PMS_P1;PMS_P2;Temp;Humidity;BMP_temperature;BMP_pressure;BME280_temperature;BME280_humidity;BME280_pressure;Samples;Min_cycle;Max_cycle;Signal;HPM_P1;HPM_P2
2022/07/12 00:00:11;;;;;;;;;;;24.90;92.20;;;;;;5038025;28;19937;-54
2022/07/12 00:02:38;;;;;;;;;;;24.90;92.20;;;;;;5050930;28;19928;-54
2022/07/12 00:05:06;;;;;;;;;;;24.90;92.20;;;;;;5045189;28;19929;-53
2022/07/12 00:07:33;;;;;;;;;;;24.90;92.20;;;;;;5050855;28;20288;-53
2022/07/12 00:10:00;;;;;;;;;;;24.80;92.20;;;;;;5046299;28;19961;-55
2022/07/12 00:12:27;;;;;;;;;;;24.90;92.50;;;;;;5043802;28;19929;-55
2022/07/12 00:14:55;;;;;;;;;;;24.80;92.60;;;;;;5046718;28;20359;-49
2022/07/12 00:17:22;;;;;;;;;;;24.90;92.40;;;;;;5045658;28;19929;-50
2022/07/12 00:19:49;;;;;;;;;;;24.80;92.10;;;;;;5034328;28;19929;-51
2022/07/12 00:22:16;;;;;;;;;;;24.90;92.00;;;;;;5044100;28;19929;-51
2022/07/12 00:24:43;;;;;;;;;;;24.80;91.90;;;;;;5030674;28;19925;-49
2022/07/12 00:27:11;;;;;;;;;;;24.80;91.80;;;;;;5036812;28;19926;-51
2022/07/12 00:29:38;;;;;;;;;;;24.80;91.80;;;;;;5028344;28;20112;-54
2022/07/12 00:32:05;;;;;;;;;;;24.80;91.70;;;;;;5044986;28;19925;-55
2022/07/12 00:34:32;;;;;;;;;;;24.80;91.70;;;;;;5028717;28;19925;-54
2022/07/12 00:36:59;;;;;;;;;;;24.80;91.70;;;;;;5037196;28;19929;-54
2022/07/12 00:39:26;;;;;;;;;;;24.80;91.70;;;;;;5035719;28;19929;-55
2022/07/12 00:41:54;;;;;;;;;;;24.80;91.60;;;;;;5052494;28;19929;-54
2022/07/12 00:44:21;;;;;;;;;;;24.80;91.70;;;;;;5037546;28;19948;-52
2022/07/12 00:46:48;;;;;;;;;;;24.80;91.60;;;;;;5038002;28;19936;-54
2022/07/12 00:49:16;;;;;;;;;;;24.80;91.60;;;;;;5029673;28;19928;-57
2022/07/12 00:51:43;;;;;;;;;;;24.80;91.60;;;;;;5036510;28;19924;-55
2022/07/12 00:54:10;;;;;;;;;;;24.80;91.60;;;;;;5028909;28;19926;-54
2022/07/12 00:56:38;;;;;;;;;;;24.80;91.60;;;;;;5041506;28;19925;-53
2022/07/12 00:59:05;;;;;;;;;;;24.80;91.50;;;;;;5045658;28;19936;-53
2022/07/12 01:01:32;;;;;;;;;;;24.80;91.50;;;;;;5035425;28;19932;-54
2022/07/12 01:04:00;;;;;;;;;;;24.80;91.50;;;;;;5031126;28;20004;-50
2022/07/12 01:06:29;;;;;;;;;;;24.80;91.50;;;;;;5044546;28;19936;-50
2022/07/12 01:08:56;;;;;;;;;;;24.70;91.50;;;;;;5028236;28;20208;-54
2022/07/12 01:11:23;;;;;;;;;;;24.70;91.50;;;;;;5050357;28;19924;-53
2022/07/12 01:13:52;;;;;;;;;;;24.80;91.50;;;;;;5039705;28;20420;-55
2022/07/12 01:16:19;;;;;;;;;;;24.70;91.50;;;;;;5038857;28;20404;-53
2022/07/12 01:18:46;;;;;;;;;;;24.70;91.50;;;;;;5035501;28;20471;-56
2022/07/12 01:21:17;;;;;;;;;;;24.70;91.50;;;;;;5033873;28;20431;-53
2022/07/12 01:23:48;;;;;;;;;;;24.70;91.50;;;;;;5028142;28;20316;-53
2022/07/12 01:26:16;;;;;;;;;;;24.70;91.50;;;;;;5033356;28;19928;-51
2022/07/12 01:28:43;;;;;;;;;;;24.70;91.50;;;;;;5041082;28;20005;-57
2022/07/12 01:31:10;;;;;;;;;;;24.70;91.50;;;;;;5032987;28;19928;-53
2022/07/12 01:33:37;;;;;;;;;;;24.70;91.50;;;;;;5035603;28;19951;-52
2022/07/12 01:36:05;;;;;;;;;;;24.70;91.50;;;;;;5043941;28;19936;-51
2022/07/12 01:38:32;;;;;;;;;;;24.70;91.50;;;;;;5029073;28;19925;-53
2022/07/12 01:40:59;;;;;;;;;;;24.70;91.50;;;;;;5039514;28;19940;-55
2022/07/12 01:43:26;;;;;;;;;;;24.70;91.50;;;;;;5046934;28;19929;-51
2022/07/12 01:45:54;;;;;;;;;;;24.70;91.50;;;;;;5034532;28;19929;-54
2022/07/12 01:48:21;;;;;;;;;;;24.70;91.50;;;;;;5029306;28;19933;-55
2022/07/12 01:50:48;;;;;;;;;;;24.70;91.50;;;;;;5044958;28;20316;-56
2022/07/12 01:53:16;;;;;;;;;;;24.70;91.50;;;;;;5052519;28;19929;-55
2022/07/12 01:55:43;;;;;;;;;;;24.60;91.50;;;;;;5044330;28;19935;-56
2022/07/12 01:58:12;;;;;;;;;;;24.70;91.50;;;;;;5033660;28;20316;-56
2022/07/12 02:00:39;;;;;;;;;;;24.60;91.50;;;;;;5044857;28;20277;-56
2022/07/12 02:03:06;;;;;;;;;;;24.60;91.50;;;;;;5039000;28;20292;-56
2022/07/12 02:05:34;;;;;;;;;;;24.60;91.50;;;;;;5032236;28;19929;-56
2022/07/12 02:08:01;;;;;;;;;;;24.60;91.50;;;;;;5028665;28;19960;-54
2022/07/12 02:10:29;;;;;;;;;;;24.60;91.50;;;;;;5029599;28;19929;-56
2022/07/12 02:12:56;;;;;;;;;;;24.60;91.50;;;;;;5056182;28;20288;-54
2022/07/12 02:15:23;;;;;;;;;;;24.60;91.50;;;;;;5034994;28;20285;-53
2022/07/12 02:17:50;;;;;;;;;;;24.60;91.60;;;;;;5029800;28;19933;-51
2022/07/12 02:20:17;;;;;;;;;;;24.60;91.60;;;;;;5029879;28;19932;-53
2022/07/12 02:22:44;;;;;;;;;;;24.60;91.50;;;;;;5040706;28;20401;-56
2022/07/12 02:25:12;;;;;;;;;;;24.60;91.50;;;;;;5028923;28;19929;-50
2022/07/12 02:27:40;;;;;;;;;;;24.60;91.60;;;;;;5045170;28;20411;-55
2022/07/12 02:30:08;;;;;;;;;;;24.60;91.60;;;;;;5036149;28;20375;-55
2022/07/12 02:32:36;;;;;;;;;;;24.60;91.60;;;;;;5026708;28;20396;-52
2022/07/12 02:35:06;;;;;;;;;;;24.60;91.60;;;;;;5031387;28;19928;-52
2022/07/12 02:37:33;;;;;;;;;;;24.60;91.60;;;;;;5044261;28;20043;-54
2022/07/12 02:42:45;;;;;;;;;;;24.60;91.60;;;;;;5037403;28;19936;-51
2022/07/12 02:45:12;;;;;;;;;;;24.60;91.60;;;;;;5026312;28;20364;-55
2022/07/12 02:47:40;;;;;;;;;;;24.60;91.60;;;;;;5027665;28;19933;-54
2022/07/12 02:50:07;;;;;;;;;;;24.60;91.60;;;;;;5046039;28;19936;-51
2022/07/12 02:52:34;;;;;;;;;;;24.50;91.60;;;;;;5045115;28;19940;-52
2022/07/12 02:55:01;;;;;;;;;;;24.60;91.60;;;;;;5047105;28;20303;-52
2022/07/12 02:57:28;;;;;;;;;;;24.50;91.60;;;;;;5022643;28;19929;-55
2022/07/12 02:59:56;;;;;;;;;;;24.60;91.60;;;;;;5038685;28;19936;-52
2022/07/12 03:02:23;;;;;;;;;;;24.60;91.60;;;;;;5027010;28;19925;-54
2022/07/12 03:04:50;;;;;;;;;;;24.60;91.60;;;;;;5028628;28;19930;-56
2022/07/12 03:07:17;;;;;;;;;;;24.60;91.60;;;;;;5042829;28;20344;-55
2022/07/12 03:09:44;;;;;;;;;;;24.50;91.60;;;;;;5041171;28;20286;-53
2022/07/12 03:12:12;;;;;;;;;;;24.50;91.60;;;;;;5037531;28;19929;-56
2022/07/12 03:14:39;;;;;;;;;;;24.50;91.60;;;;;;5045870;28;19975;-52
2022/07/12 03:17:06;;;;;;;;;;;24.50;91.60;;;;;;5035708;28;20285;-52
2022/07/12 03:19:33;;;;;;;;;;;24.50;91.50;;;;;;5016022;28;20407;-52
2022/07/12 03:22:00;;;;;;;;;;;24.50;91.60;;;;;;5026734;28;20321;-55
2022/07/12 03:24:28;;;;;;;;;;;24.50;91.60;;;;;;5033024;28;19944;-53
2022/07/12 03:26:55;;;;;;;;;;;24.50;91.50;;;;;;5033306;28;19929;-55
2022/07/12 03:29:22;;;;;;;;;;;24.50;91.50;;;;;;5029724;28;20403;-54
2022/07/12 03:31:49;;;;;;;;;;;24.50;91.50;;;;;;5048964;28;19951;-55
2022/07/12 03:34:16;;;;;;;;;;;24.50;91.50;;;;;;5049756;28;19936;-55
2022/07/12 03:36:43;;;;;;;;;;;24.50;91.50;;;;;;5031992;28;19940;-55
2022/07/12 03:39:10;;;;;;;;;;;24.50;91.50;;;;;;5030402;28;20340;-53
2022/07/12 03:41:37;;;;;;;;;;;24.50;91.50;;;;;;5049324;28;19925;-55
2022/07/12 03:44:05;;;;;;;;;;;24.50;91.50;;;;;;5041300;28;19948;-54
2022/07/12 03:46:33;;;;;;;;;;;24.40;91.50;;;;;;5046050;28;19936;-52
2022/07/12 03:49:00;;;;;;;;;;;24.40;91.50;;;;;;5030644;28;19948;-53
2022/07/12 03:51:28;;;;;;;;;;;24.50;91.50;;;;;;5035133;28;19929;-50
2022/07/12 03:53:55;;;;;;;;;;;24.50;91.60;;;;;;5040900;28;19935;-52
2022/07/12 03:59:08;;;;;;;;;;;24.40;91.50;;;;;;5037323;28;19936;-55
2022/07/12 04:01:35;;;;;;;;;;;24.50;91.50;;;;;;5037851;28;20036;-52
2022/07/12 04:04:02;;;;;;;;;;;24.40;91.50;;;;;;5029576;28;19932;-51
2022/07/12 04:06:30;;;;;;;;;;;24.40;91.50;;;;;;5042900;28;19928;-54
2022/07/12 04:08:57;;;;;;;;;;;24.40;91.50;;;;;;5029773;28;19937;-52
2022/07/12 04:11:24;;;;;;;;;;;24.40;91.50;;;;;;5047102;28;20427;-50
2022/07/12 04:13:51;;;;;;;;;;;24.40;91.50;;;;;;5038008;28;19935;-53
2022/07/12 04:16:18;;;;;;;;;;;24.40;91.50;;;;;;5032853;28;19929;-52
2022/07/12 04:18:46;;;;;;;;;;;24.40;91.50;;;;;;5044977;28;19933;-53
2022/07/12 04:21:13;;;;;;;;;;;24.40;91.50;;;;;;5047465;28;19929;-53
2022/07/12 04:23:40;;;;;;;;;;;24.40;91.50;;;;;;5044947;28;20404;-54
2022/07/12 04:26:07;;;;;;;;;;;24.40;91.50;;;;;;5015423;28;19929;-50
2022/07/12 04:28:35;;;;;;;;;;;24.40;91.50;;;;;;5044692;28;19925;-54
2022/07/12 04:31:02;;;;;;;;;;;24.40;91.60;;;;;;5027337;28;19925;-50
2022/07/12 04:33:29;;;;;;;;;;;24.40;91.60;;;;;;5037818;28;19929;-55
2022/07/12 04:35:56;;;;;;;;;;;24.40;91.60;;;;;;5037346;28;20382;-52
2022/07/12 04:38:24;;;;;;;;;;;24.40;91.60;;;;;;5045335;28;19936;-55
2022/07/12 04:40:51;;;;;;;;;;;24.40;91.60;;;;;;5033180;28;19932;-52
2022/07/12 04:43:18;;;;;;;;;;;24.40;91.60;;;;;;5040354;28;19929;-56
2022/07/12 04:45:45;;;;;;;;;;;24.40;91.50;;;;;;5045660;28;19928;-52
2022/07/12 04:48:13;;;;;;;;;;;24.40;91.50;;;;;;5032708;28;19929;-54
2022/07/12 04:50:40;;;;;;;;;;;24.40;91.60;;;;;;5036336;28;19936;-55
2022/07/12 04:53:07;;;;;;;;;;;24.40;91.60;;;;;;5046137;28;20284;-55
2022/07/12 04:55:34;;;;;;;;;;;24.40;91.60;;;;;;5032570;28;19929;-54
2022/07/12 04:58:01;;;;;;;;;;;24.40;91.60;;;;;;5048602;28;19940;-51
2022/07/12 05:00:28;;;;;;;;;;;24.50;91.60;;;;;;5042827;28;20384;-56
2022/07/12 05:02:56;;;;;;;;;;;24.50;91.50;;;;;;5038581;28;19936;-52
2022/07/12 05:05:23;;;;;;;;;;;24.50;91.50;;;;;;5030884;28;19932;-54
2022/07/12 05:07:50;;;;;;;;;;;24.50;91.50;;;;;;5044204;28;20128;-53
2022/07/12 05:10:17;;;;;;;;;;;24.50;91.50;;;;;;5037857;28;19925;-56
2022/07/12 05:12:44;;;;;;;;;;;24.50;91.50;;;;;;5032033;28;19940;-56
2022/07/12 05:15:11;;;;;;;;;;;24.50;91.60;;;;;;5034440;28;20404;-55
2022/07/12 05:17:38;;;;;;;;;;;24.50;91.60;;;;;;5047226;28;19935;-51
2022/07/12 05:20:06;;;;;;;;;;;24.50;91.60;;;;;;5029299;28;19940;-54
2022/07/12 05:22:33;;;;;;;;;;;24.50;91.60;;;;;;5034280;28;19929;-52
2022/07/12 05:25:00;;;;;;;;;;;24.50;91.60;;;;;;5032758;28;19943;-52
2022/07/12 05:27:27;;;;;;;;;;;24.50;91.60;;;;;;5032497;28;19949;-51
2022/07/12 05:29:54;;;;;;;;;;;24.50;91.60;;;;;;5030437;28;19929;-56
2022/07/12 05:32:23;;;;;;;;;;;24.50;91.60;;;;;;5027849;28;20324;-53
2022/07/12 05:34:50;;;;;;;;;;;24.50;91.70;;;;;;5047459;28;20250;-52
2022/07/12 05:37:17;;;;;;;;;;;24.50;91.70;;;;;;5030669;28;20361;-55
2022/07/12 05:39:44;;;;;;;;;;;24.40;91.70;;;;;;5034297;28;20295;-55
2022/07/12 05:42:12;;;;;;;;;;;24.50;91.70;;;;;;5042168;28;19940;-52
2022/07/12 05:44:39;;;;;;;;;;;24.50;91.70;;;;;;5035644;28;20288;-54
2022/07/12 05:47:06;;;;;;;;;;;24.40;91.80;;;;;;5046625;28;19952;-54
2022/07/12 05:49:33;;;;;;;;;;;24.40;91.80;;;;;;5035368;28;20424;-54
2022/07/12 05:54:46;;;;;;;;;;;24.40;91.80;;;;;;5043905;28;19932;-53
2022/07/12 05:57:16;;;;;;;;;;;24.50;91.90;;;;;;5038776;28;19939;-54
2022/07/12 05:59:44;;;;;;;;;;;24.50;92.00;;;;;;5038332;28;19929;-55
2022/07/12 06:02:11;;;;;;;;;;;24.50;92.10;;;;;;5034539;28;20307;-51
2022/07/12 06:04:38;;;;;;;;;;;24.50;92.10;;;;;;5052557;28;19936;-54
2022/07/12 06:07:06;;;;;;;;;;;24.50;92.10;;;;;;5042137;28;19925;-52
2022/07/12 06:09:33;;;;;;;;;;;24.50;92.00;;;;;;5032117;28;19932;-56
2022/07/12 06:12:00;;;;;;;;;;;24.50;92.00;;;;;;5057223;28;19935;-55
2022/07/12 06:14:27;;;;;;;;;;;24.50;92.00;;;;;;5033564;28;19929;-51
2022/07/12 06:16:54;;;;;;;;;;;24.50;92.00;;;;;;5021899;28;19929;-51
2022/07/12 06:19:23;;;;;;;;;;;24.50;92.10;;;;;;5031680;28;20407;-55
2022/07/12 06:21:50;;;;;;;;;;;24.60;92.40;;;;;;5031100;28;19925;-54
2022/07/12 06:24:17;;;;;;;;;;;24.60;92.40;;;;;;5041943;28;19925;-54
2022/07/12 06:26:44;;;;;;;;;;;24.60;92.50;;;;;;5037935;28;20388;-53
2022/07/12 06:29:11;;;;;;;;;;;24.60;92.70;;;;;;5046705;28;19924;-54
2022/07/12 06:31:38;;;;;;;;;;;24.60;92.70;;;;;;5038839;28;19929;-54
2022/07/12 06:34:06;;;;;;;;;;;24.60;92.90;;;;;;5033632;28;20168;-55
2022/07/12 06:36:33;;;;;;;;;;;24.60;92.90;;;;;;5039269;28;19956;-57
2022/07/12 06:39:00;;;;;;;;;;;24.60;92.90;;;;;;5038729;28;19975;-55
2022/07/12 06:41:29;;;;;;;;;;;24.60;93.00;;;;;;5039960;28;19956;-53
2022/07/12 06:43:56;;;;;;;;;;;24.60;93.10;;;;;;5054016;28;19929;-56
2022/07/12 06:46:23;;;;;;;;;;;24.70;93.20;;;;;;5039275;28;19929;-53
2022/07/12 06:48:50;;;;;;;;;;;24.60;93.20;;;;;;5009743;28;19929;-55
2022/07/12 06:51:17;;;;;;;;;;;24.70;93.30;;;;;;5040290;28;19945;-58
2022/07/12 06:53:44;;;;;;;;;;;24.70;93.40;;;;;;5037907;28;20308;-56
2022/07/12 06:56:11;;;;;;;;;;;24.70;93.40;;;;;;5034330;28;19937;-57
2022/07/12 06:58:39;;;;;;;;;;;24.80;93.40;;;;;;5038550;28;20397;-57
2022/07/12 07:01:06;;;;;;;;;;;24.70;93.50;;;;;;5031675;28;20308;-54
2022/07/12 07:03:34;;;;;;;;;;;24.80;93.60;;;;;;5030322;28;20615;-57
2022/07/12 07:06:03;;;;;;;;;;;24.70;93.50;;;;;;5043917;28;20304;-56
2022/07/12 07:08:32;;;;;;;;;;;24.70;93.50;;;;;;5031494;28;19932;-55
2022/07/12 07:10:59;;;;;;;;;;;24.80;93.60;;;;;;5044020;28;20375;-56
2022/07/12 07:13:26;;;;;;;;;;;24.80;93.70;;;;;;5033185;28;20343;-55
2022/07/12 07:15:54;;;;;;;;;;;24.70;93.70;;;;;;5034305;28;19933;-54
2022/07/12 07:18:21;;;;;;;;;;;24.80;93.70;;;;;;5031375;28;19929;-51
2022/07/12 07:20:48;;;;;;;;;;;24.70;93.70;;;;;;5032233;28;20722;-56
2022/07/12 07:23:16;;;;;;;;;;;24.80;93.80;;;;;;5035772;28;20400;-55
2022/07/12 07:25:44;;;;;;;;;;;24.80;94.00;;;;;;5036800;28;20321;-58
2022/07/12 07:28:11;;;;;;;;;;;24.80;94.00;;;;;;5042421;28;19936;-53
2022/07/12 07:30:54;;;;;;;;;;;24.80;94.30;;;;;;5046090;28;19928;-56
2022/07/12 07:33:22;;;;;;;;;;;24.80;93.90;;;;;;5055913;28;19929;-58
2022/07/12 07:35:52;;;;;;;;;;;24.80;93.70;;;;;;5053769;28;20312;-57
2022/07/12 07:38:19;;;;;;;;;;;24.80;93.90;;;;;;5048080;28;19928;-56
2022/07/12 07:40:46;;;;;;;;;;;24.80;93.60;;;;;;5040618;28;19929;-57
2022/07/12 07:43:13;;;;;;;;;;;24.70;93.60;;;;;;5021027;28;19955;-56
2022/07/12 07:45:41;;;;;;;;;;;24.70;93.60;;;;;;5040429;28;20392;-55
2022/07/12 07:48:08;;;;;;;;;;;24.70;93.50;;;;;;5036699;28;20325;-56
2022/07/12 07:50:52;;;;;;;;;;;24.70;93.40;;;;;;5049822;28;19936;-56
2022/07/12 07:53:20;;;;;;;;;;;24.60;93.10;;;;;;5045128;28;19940;-52
2022/07/12 07:55:47;;;;;;;;;;;24.60;92.90;;;;;;5036784;28;19943;-56
2022/07/12 07:58:14;;;;;;;;;;;24.60;92.80;;;;;;5039817;28;19933;-62
2022/07/12 08:00:41;;;;;;;;;;;24.60;92.80;;;;;;5035583;28;19929;-57
2022/07/12 08:03:09;;;;;;;;;;;24.60;92.80;;;;;;5039431;28;19929;-55
2022/07/12 08:05:36;;;;;;;;;;;24.60;92.70;;;;;;5039387;28;19933;-54
2022/07/12 08:08:03;;;;;;;;;;;24.60;92.70;;;;;;5038697;28;20319;-55
2022/07/12 08:10:31;;;;;;;;;;;24.60;92.70;;;;;;5040149;28;19928;-56
2022/07/12 08:12:58;;;;;;;;;;;24.60;92.70;;;;;;5037739;28;19929;-55
2022/07/12 08:15:25;;;;;;;;;;;24.60;92.70;;;;;;5038009;28;19935;-56
2022/07/12 08:17:52;;;;;;;;;;;24.60;92.70;;;;;;5041564;28;19925;-57
2022/07/12 08:20:22;;;;;;;;;;;24.60;92.80;;;;;;5034157;28;19932;-57
2022/07/12 08:23:09;;;;;;;;;;;24.70;92.80;;;;;;5022340;28;19929;-56
2022/07/12 08:25:37;;;;;;;;;;;24.70;92.80;;;;;;5033810;28;19929;-55
2022/07/12 08:28:04;;;;;;;;;;;24.70;92.80;;;;;;5029822;28;19952;-59
2022/07/12 08:30:31;;;;;;;;;;;24.70;92.80;;;;;;5030273;28;19929;-55
2022/07/12 08:32:58;;;;;;;;;;;24.80;92.80;;;;;;5028830;28;19932;-57
2022/07/12 08:35:25;;;;;;;;;;;24.80;92.80;;;;;;5037412;28;20431;-58
2022/07/12 08:37:52;;;;;;;;;;;24.80;92.80;;;;;;5039500;28;19939;-57
2022/07/12 08:40:21;;;;;;;;;;;24.80;92.80;;;;;;5038631;28;19933;-57
2022/07/12 08:42:48;;;;;;;;;;;24.80;92.80;;;;;;5045655;28;19929;-56
2022/07/12 08:45:16;;;;;;;;;;;24.80;92.80;;;;;;5028571;28;19929;-56
2022/07/12 08:47:44;;;;;;;;;;;24.70;92.80;;;;;;5033335;28;19929;-55
2022/07/12 08:50:17;;;;;;;;;;;24.70;92.80;;;;;;5034461;28;20301;-55
2022/07/12 08:52:46;;;;;;;;;;;24.80;92.70;;;;;;5045320;28;19933;-56
2022/07/12 08:55:22;;;;;;;;;;;24.80;92.70;;;;;;5030651;28;19929;-56
2022/07/12 08:57:51;;;;;;;;;;;24.80;92.70;;;;;;5047399;28;19932;-56
2022/07/12 09:00:19;;;;;;;;;;;24.80;92.70;;;;;;5043268;28;19928;-52
2022/07/12 09:02:46;;;;;;;;;;;24.80;92.70;;;;;;5044677;28;19929;-56
2022/07/12 09:05:14;;;;;;;;;;;24.80;92.70;;;;;;5038443;28;20012;-54
2022/07/12 09:07:41;;;;;;;;;;;24.80;92.70;;;;;;5036434;28;19939;-55
2022/07/12 09:10:10;;;;;;;;;;;24.80;92.70;;;;;;5028393;28;19928;-55
2022/07/12 09:12:37;;;;;;;;;;;24.80;92.70;;;;;;5047310;28;19929;-55
2022/07/12 09:15:15;;;;;;;;;;;24.80;92.70;;;;;;5029436;28;19928;-58
2022/07/12 09:17:53;;;;;;;;;;;24.80;92.60;;;;;;5040861;28;19929;-57
2022/07/12 09:20:21;;;;;;;;;;;24.80;92.60;;;;;;5043005;28;19939;-58
2022/07/12 09:22:53;;;;;;;;;;;24.80;92.60;;;;;;5038061;28;19929;-53
2022/07/12 09:25:20;;;;;;;;;;;24.80;92.60;;;;;;5035191;28;20004;-55
2022/07/12 09:27:49;;;;;;;;;;;24.80;92.60;;;;;;5029157;28;19925;-52
2022/07/12 09:30:17;;;;;;;;;;;24.80;92.60;;;;;;5033563;28;19929;-54
2022/07/12 09:38:29;;;;;;;;;;;24.80;92.50;;;;;;5046238;28;19928;-57
2022/07/12 09:40:56;;;;;;;;;;;24.80;92.50;;;;;;5036432;28;19935;-57
2022/07/12 09:43:24;;;;;;;;;;;24.80;92.80;;;;;;5042251;28;20424;-57
2022/07/12 09:45:52;;;;;;;;;;;24.80;92.50;;;;;;5010702;28;19937;-51
2022/07/12 09:48:23;;;;;;;;;;;24.80;92.50;;;;;;5008922;28;19948;-54
2022/07/12 09:50:51;;;;;;;;;;;24.80;92.50;;;;;;5011021;28;19940;-54
2022/07/12 09:53:22;;;;;;;;;;;24.80;92.50;;;;;;5007368;28;19937;-55
2022/07/12 09:55:50;;;;;;;;;;;24.80;92.50;;;;;;5023971;28;19936;-53
2022/07/12 09:58:26;;;;;;;;;;;24.80;92.50;;;;;;5019086;28;19936;-55
2022/07/12 10:00:53;;;;;;;;;;;24.80;92.70;;;;;;5015679;28;20312;-55
2022/07/12 10:03:23;;;;;;;;;;;24.80;92.50;;;;;;5019801;28;19933;-55
2022/07/12 10:05:51;;;;;;;;;;;24.80;92.40;;;;;;5024179;28;19925;-54
2022/07/12 10:08:21;;;;;;;;;;;24.80;92.40;;;;;;5007694;28;19937;-53
2022/07/12 10:10:49;;;;;;;;;;;24.80;92.40;;;;;;5007827;28;20215;-52
2022/07/12 10:13:18;;;;;;;;;;;24.80;92.40;;;;;;5012598;28;19936;-55
2022/07/12 10:15:49;;;;;;;;;;;24.80;92.40;;;;;;5012236;28;19933;-52
2022/07/12 10:18:17;;;;;;;;;;;24.80;92.40;;;;;;5003655;28;19929;-55
2022/07/12 10:20:48;;;;;;;;;;;24.80;92.40;;;;;;5011333;28;20285;-55
2022/07/12 10:23:31;;;;;;;;;;;24.80;92.40;;;;;;5021691;28;19956;-54
2022/07/12 10:25:58;;;;;;;;;;;24.80;92.40;;;;;;5019805;28;20188;-57
2022/07/12 10:28:44;;;;;;;;;;;24.80;92.40;;;;;;5013397;28;19945;-57
2022/07/12 10:31:11;;;;;;;;;;;24.80;92.40;;;;;;5014464;28;19929;-54
2022/07/12 10:33:39;;;;;;;;;;;24.80;92.40;;;;;;5009944;28;19929;-51
2022/07/12 10:36:06;;;;;;;;;;;24.80;92.40;;;;;;5020895;28;19949;-56
2022/07/12 10:38:40;;;;;;;;;;;24.80;92.40;;;;;;5007566;28;20290;-53
2022/07/12 10:41:16;;;;;;;;;;;24.80;92.40;;;;;;5012664;28;19929;-55
2022/07/12 10:46:29;;;;;;;;;;;24.80;92.30;;;;;;5018465;28;19929;-55
2022/07/12 10:49:15;;;;;;;;;;;24.80;92.30;;;;;;5027304;28;19937;-56
2022/07/12 10:52:02;;;;;;;;;;;24.80;92.30;;;;;;5012343;28;19937;-53
2022/07/12 10:54:29;;;;;;;;;;;24.80;92.30;;;;;;5025941;28;19952;-53
2022/07/12 10:56:57;;;;;;;;;;;24.80;92.30;;;;;;5019233;28;19929;-56
2022/07/12 10:59:25;;;;;;;;;;;24.80;92.30;;;;;;5011632;28;20259;-53
2022/07/12 11:01:55;;;;;;;;;;;24.80;92.30;;;;;;5019118;28;19930;-57
2022/07/12 11:04:22;;;;;;;;;;;24.80;92.30;;;;;;5010458;28;20381;-55
2022/07/12 11:06:49;;;;;;;;;;;24.80;92.30;;;;;;5025060;28;19936;-57
2022/07/12 11:09:17;;;;;;;;;;;24.80;92.30;;;;;;5022124;28;20290;-56
2022/07/12 11:11:48;;;;;;;;;;;24.80;92.20;;;;;;5033543;28;19929;-55
2022/07/12 11:14:33;;;;;;;;;;;24.80;92.20;;;;;;5035065;28;19940;-55
2022/07/12 11:17:01;;;;;;;;;;;24.80;92.20;;;;;;5026447;28;20625;-57
2022/07/12 11:19:29;;;;;;;;;;;24.80;92.20;;;;;;5010721;28;19930;-54
2022/07/12 11:21:57;;;;;;;;;;;24.80;92.20;;;;;;5017212;28;19933;-52
2022/07/12 11:24:25;;;;;;;;;;;24.80;92.20;;;;;;5023144;28;19952;-58
2022/07/12 11:26:52;;;;;;;;;;;24.80;92.20;;;;;;5017315;28;19952;-56
2022/07/12 11:29:19;;;;;;;;;;;24.80;92.20;;;;;;5014862;28;19937;-55
2022/07/12 11:31:47;;;;;;;;;;;24.80;92.20;;;;;;5016505;28;20356;-55
2022/07/12 11:34:24;;;;;;;;;;;24.80;92.20;;;;;;5010966;28;19953;-52
2022/07/12 11:36:58;;;;;;;;;;;24.80;92.20;;;;;;5016158;28;20487;-56
2022/07/12 11:39:34;;;;;;;;;;;24.80;92.10;;;;;;5013990;28;19937;-55
2022/07/12 11:42:02;;;;;;;;;;;24.80;92.10;;;;;;5031510;28;20269;-55
2022/07/12 11:44:46;;;;;;;;;;;24.80;92.10;;;;;;5038718;28;19928;-56
2022/07/12 11:47:14;;;;;;;;;;;24.80;92.10;;;;;;5045422;28;20019;-50
2022/07/12 11:49:45;;;;;;;;;;;24.80;92.10;;;;;;5029930;28;19929;-52
2022/07/12 11:52:17;;;;;;;;;;;24.80;92.10;;;;;;5033760;28;19928;-57
2022/07/12 11:54:44;;;;;;;;;;;24.80;92.10;;;;;;5050023;28;19929;-54
2022/07/12 11:57:12;;;;;;;;;;;24.80;92.10;;;;;;5041016;28;19929;-51
2022/07/12 11:59:39;;;;;;;;;;;24.80;92.10;;;;;;5062158;28;20296;-55
2022/07/12 12:02:11;;;;;;;;;;;24.80;92.00;;;;;;5040822;28;19929;-57
2022/07/12 12:04:48;;;;;;;;;;;24.80;92.00;;;;;;5038152;28;19925;-51
2022/07/12 12:07:16;;;;;;;;;;;24.80;92.00;;;;;;5037728;28;20281;-57
2022/07/12 12:09:59;;;;;;;;;;;24.80;92.00;;;;;;5036223;28;19936;-55
2022/07/12 12:12:27;;;;;;;;;;;24.80;92.00;;;;;;5045283;28;20502;-55
2022/07/12 12:14:55;;;;;;;;;;;24.80;92.00;;;;;;5047396;28;20320;-54
2022/07/12 12:17:22;;;;;;;;;;;24.80;92.00;;;;;;5039819;28;20285;-60
2022/07/12 12:19:49;;;;;;;;;;;24.80;92.00;;;;;;5030578;28;19936;-56
2022/07/12 12:22:32;;;;;;;;;;;24.80;92.30;;;;;;5036169;28;19933;-59
2022/07/12 12:25:00;;;;;;;;;;;24.80;92.00;;;;;;5040635;28;19936;-57
2022/07/12 12:27:27;;;;;;;;;;;24.80;92.00;;;;;;5027724;28;19929;-56
2022/07/12 12:30:15;;;;;;;;;;;24.80;91.90;;;;;;5030783;28;19936;-56
2022/07/12 12:32:55;;;;;;;;;;;24.80;91.90;;;;;;5044746;28;19929;-55
2022/07/12 12:35:32;;;;;;;;;;;24.80;91.90;;;;;;5031489;28;20333;-57
2022/07/12 12:38:00;;;;;;;;;;;24.80;91.90;;;;;;5042556;28;20395;-57
2022/07/12 12:40:29;;;;;;;;;;;24.80;91.90;;;;;;5046338;28;19929;-55
2022/07/12 12:43:08;;;;;;;;;;;24.90;91.90;;;;;;5042262;28;20040;-58
2022/07/12 12:45:35;;;;;;;;;;;24.90;91.90;;;;;;5042074;28;19932;-59
2022/07/12 12:48:03;;;;;;;;;;;24.90;91.90;;;;;;5047972;28;20384;-56
2022/07/12 12:50:37;;;;;;;;;;;24.90;91.80;;;;;;5043344;28;20044;-54
2022/07/12 12:53:08;;;;;;;;;;;24.90;91.80;;;;;;5036203;28;19936;-54
2022/07/12 12:55:35;;;;;;;;;;;25.00;91.80;;;;;;5040904;28;19925;-56
2022/07/12 12:58:07;;;;;;;;;;;25.00;91.80;;;;;;5042298;28;19933;-58
2022/07/12 13:00:38;;;;;;;;;;;24.90;91.70;;;;;;5029106;28;20316;-55
2022/07/12 13:03:06;;;;;;;;;;;25.00;91.70;;;;;;5041668;28;19928;-50
2022/07/12 13:05:34;;;;;;;;;;;25.00;91.70;;;;;;5034340;28;19928;-55
2022/07/12 13:08:02;;;;;;;;;;;25.00;91.70;;;;;;5045800;28;19928;-56
2022/07/12 13:10:30;;;;;;;;;;;25.00;91.60;;;;;;5035167;28;19929;-53
2022/07/12 13:12:59;;;;;;;;;;;25.00;91.60;;;;;;5039616;28;19929;-54
2022/07/12 13:15:26;;;;;;;;;;;25.10;91.90;;;;;;5047488;28;20392;-54
2022/07/12 13:17:54;;;;;;;;;;;25.10;91.60;;;;;;5030448;28;19928;-57
2022/07/12 13:20:22;;;;;;;;;;;25.10;91.60;;;;;;5034367;28;20487;-54
2022/07/12 13:22:49;;;;;;;;;;;25.20;91.60;;;;;;5035714;28;19935;-56
2022/07/12 13:25:17;;;;;;;;;;;25.20;91.80;;;;;;5047850;28;20315;-53
2022/07/12 13:27:45;;;;;;;;;;;25.20;91.50;;;;;;5038312;28;19941;-54
2022/07/12 13:30:13;;;;;;;;;;;25.20;91.50;;;;;;5031541;28;19943;-54
2022/07/12 13:32:41;;;;;;;;;;;25.20;91.40;;;;;;5023150;28;19936;-54
2022/07/12 13:35:10;;;;;;;;;;;25.30;91.40;;;;;;5031638;28;20127;-53
2022/07/12 13:37:38;;;;;;;;;;;25.30;91.40;;;;;;5027860;28;19933;-55
2022/07/12 13:40:13;;;;;;;;;;;25.40;91.40;;;;;;5030923;28;20024;-53
2022/07/12 13:42:41;;;;;;;;;;;25.40;91.30;;;;;;5028725;28;19929;-53
2022/07/12 13:45:09;;;;;;;;;;;25.40;91.30;;;;;;5027235;28;20419;-53
2022/07/12 13:47:37;;;;;;;;;;;25.50;91.30;;;;;;5044542;28;20319;-53
2022/07/12 13:50:05;;;;;;;;;;;25.50;91.30;;;;;;5036323;28;19936;-57
2022/07/12 13:52:32;;;;;;;;;;;25.50;91.20;;;;;;5030161;28;19925;-54
2022/07/12 13:55:00;;;;;;;;;;;25.50;91.20;;;;;;5028837;28;19936;-56
2022/07/12 13:57:27;;;;;;;;;;;25.60;91.20;;;;;;5052064;28;19933;-51
2022/07/12 13:59:56;;;;;;;;;;;25.60;91.10;;;;;;5031474;28;19929;-55
2022/07/12 14:02:23;;;;;;;;;;;25.60;91.10;;;;;;5024852;28;20000;-56
2022/07/12 14:04:51;;;;;;;;;;;25.70;91.10;;;;;;5036448;28;19936;-53
2022/07/12 14:07:18;;;;;;;;;;;25.70;91.00;;;;;;5033394;28;19936;-54
2022/07/12 14:09:46;;;;;;;;;;;25.80;91.00;;;;;;5027753;28;19936;-54
2022/07/12 14:12:13;;;;;;;;;;;25.80;91.00;;;;;;5037668;28;19951;-56
2022/07/12 14:17:26;;;;;;;;;;;25.90;90.90;;;;;;5045564;28;19932;-57
2022/07/12 14:19:53;;;;;;;;;;;25.90;90.90;;;;;;5043723;28;19925;-54
2022/07/12 14:22:20;;;;;;;;;;;26.00;90.80;;;;;;5031990;28;19939;-53
2022/07/12 14:24:47;;;;;;;;;;;26.00;90.80;;;;;;5027316;28;19937;-56
2022/07/12 14:27:14;;;;;;;;;;;26.00;90.70;;;;;;5032883;28;20401;-56
2022/07/12 14:29:42;;;;;;;;;;;26.00;90.70;;;;;;5036613;28;20235;-57
2022/07/12 14:32:09;;;;;;;;;;;26.10;90.70;;;;;;5038479;28;19929;-56
2022/07/12 14:34:36;;;;;;;;;;;26.10;90.60;;;;;;5027163;28;19940;-55
2022/07/12 14:37:04;;;;;;;;;;;26.10;90.60;;;;;;5036153;28;19936;-52
2022/07/12 14:39:31;;;;;;;;;;;26.20;90.60;;;;;;5045474;28;19928;-58
2022/07/12 14:41:59;;;;;;;;;;;26.30;90.50;;;;;;5046124;28;20404;-54